Time;durP1;ratioP1;P1;durP2;ratioP2;P2;SDS_P1;SDS_P2;PMS_P1;PMS_P2;Temp;Humidity;BMP_temperature;BMP_pressure;BME280_temperature;BME280_humidity;BME280_pressure;Samples;Min_cycle;Max_cycle;Signal;HPM_P1;HPM_P2
2024/01/12 00:33:29;;;;;;;142.73;55.17;;;;;;;-7.32;90.25;99980.72;5423011;23;20057;-83
2024/01/12 00:36:14;;;;;;;149.40;56.58;;;;;;;-7.30;89.58;99971.09;4829427;29;20055;-83
2024/01/12 00:39:00;;;;;;;169.07;59.92;;;;;;;-7.42;90.04;99964.97;4837986;29;20431;-83
2024/01/12 00:41:47;;;;;;;154.38;60.50;;;;;;;-7.42;89.10;99964.16;4836403;29;20043;-85
2024/01/12 00:44:32;;;;;;;123.47;48.22;;;;;;;-7.43;89.77;99957.31;4837851;29;20046;-85
2024/01/12 00:47:17;;;;;;;124.20;51.00;;;;;;;-7.45;90.04;99945.34;4854338;29;20042;-84
2024/01/12 00:50:03;;;;;;;133.48;51.97;;;;;;;-7.45;89.17;99940.16;4829245;29;20050;-85
2024/01/12 00:52:49;;;;;;;119.18;45.72;;;;;;;-7.46;89.13;99935.09;4828354;29;20498;-84
2024/01/12 00:55:34;;;;;;;106.25;45.20;;;;;;;-7.46;89.75;99943.69;4848760;29;20050;-83
2024/01/12 00:58:20;;;;;;;122.28;52.33;;;;;;;-7.46;89.09;99942.84;4824919;29;20054;-84
2024/01/12 01:01:09;;;;;;;114.32;47.50;;;;;;;-7.48;89.35;99947.28;4823979;29;20050;-86
2024/01/12 01:03:55;;;;;;;129.63;48.00;;;;;;;-7.42;88.67;99948.66;4840574;29;20039;-85
2024/01/12 01:06:41;;;;;;;124.50;48.63;;;;;;;-7.42;88.39;99939.16;4841851;29;20050;-84
2024/01/12 01:09:27;;;;;;;116.97;45.97;;;;;;;-7.43;88.88;99941.81;4833753;29;20046;-85
2024/01/12 01:12:13;;;;;;;126.72;47.60;;;;;;;-7.40;88.93;99942.44;4813706;29;20055;-84
2024/01/12 01:15:00;;;;;;;124.40;49.60;;;;;;;-7.32;88.57;99936.81;4837002;29;20477;-85
2024/01/12 01:17:45;;;;;;;143.43;49.60;;;;;;;-7.27;89.37;99938.19;4817501;29;20050;-85
2024/01/12 01:20:33;;;;;;;129.30;50.33;;;;;;;-7.24;89.85;99934.53;4817692;29;20046;-85
2024/01/12 01:23:20;;;;;;;141.30;53.20;;;;;;;-7.16;88.78;99937.47;4830927;29;20050;-85
2024/01/12 01:26:05;;;;;;;135.52;52.10;;;;;;;-7.18;88.78;99930.75;4816975;29;20219;-84
2024/01/12 01:28:52;;;;;;;149.65;60.60;;;;;;;-7.14;89.72;99933.03;4836155;29;20046;-86
2024/01/12 01:31:39;;;;;;;249.75;106.30;;;;;;;-7.16;89.27;99934.88;4825353;29;20058;-84
2024/01/12 01:34:24;;;;;;;163.43;62.92;;;;;;;-7.14;89.41;99934.81;4830873;29;20050;-86
2024/01/12 01:37:10;;;;;;;149.65;57.22;;;;;;;-7.17;88.76;99945.34;4830038;29;20050;-84
2024/01/12 01:40:02;;;;;;;144.13;57.75;;;;;;;-7.17;88.71;99942.75;4831852;29;20046;-83
2024/01/12 01:42:53;;;;;;;148.80;58.80;;;;;;;-7.19;88.48;99953.16;4830430;29;20043;-84
2024/01/12 01:45:39;;;;;;;158.88;62.72;;;;;;;-7.10;88.79;99968.06;4831055;29;20050;-85
2024/01/12 01:48:25;;;;;;;186.00;71.57;;;;;;;-7.15;88.61;99961.53;4817613;29;20058;-84
2024/01/12 01:51:11;;;;;;;150.82;59.53;;;;;;;-7.21;88.19;99967.94;4831891;29;20059;-83
2024/01/12 01:53:57;;;;;;;111.93;49.15;;;;;;;-7.19;88.01;99966.09;4823898;29;20497;-86
2024/01/12 01:56:42;;;;;;;121.63;49.53;;;;;;;-7.16;88.54;99967.66;4814784;29;20042;-88
2024/01/12 01:59:28;;;;;;;125.10;51.17;;;;;;;-7.10;88.29;99975.81;4830100;29;20051;-84
2024/01/12 02:02:13;;;;;;;120.32;50.78;;;;;;;-7.08;87.25;99976.56;4820504;29;20047;-83
2024/01/12 02:05:00;;;;;;;125.43;52.90;;;;;;;-7.05;88.61;99972.94;4827839;29;20080;-85
2024/01/12 02:07:45;;;;;;;133.65;59.20;;;;;;;-7.09;88.28;99967.13;4845642;29;20482;-87
2024/01/12 02:10:31;;;;;;;123.65;53.28;;;;;;;-7.05;88.27;99978.09;4808047;29;20055;-85
2024/01/12 02:13:17;;;;;;;134.38;56.35;;;;;;;-6.95;87.81;99968.03;4814782;29;20050;-84
2024/01/12 02:16:02;;;;;;;130.98;57.15;;;;;;;-6.93;88.18;99969.56;4827502;29;20050;-86
2024/01/12 02:18:47;;;;;;;151.40;66.30;;;;;;;-6.86;87.23;99967.41;4819543;29;20047;-81
2024/01/12 02:21:33;;;;;;;148.38;63.33;;;;;;;-6.82;87.77;99964.53;4826917;29;20046;-85
2024/01/12 02:24:19;;;;;;;174.82;68.28;;;;;;;-6.74;88.39;99964.00;4826629;29;20050;-83
2024/01/12 02:27:04;;;;;;;145.50;60.53;;;;;;;-6.65;88.32;99949.66;4826596;29;20518;-83
2024/01/12 02:29:53;;;;;;;147.73;60.47;;;;;;;-6.58;88.60;99951.75;4826475;29;20051;-83
2024/01/12 02:32:37;;;;;;;153.73;64.78;;;;;;;-6.51;88.63;99952.16;4825612;29;20050;-83
2024/01/12 02:35:23;;;;;;;128.68;55.80;;;;;;;-6.51;88.23;99962.50;4825327;29;20047;-83
2024/01/12 02:38:08;;;;;;;157.48;68.00;;;;;;;-6.60;88.30;99958.75;4827067;29;20055;-83
2024/01/12 02:40:53;;;;;;;278.83;132.20;;;;;;;-6.54;88.18;99960.94;4826289;29;20493;-84
2024/01/12 02:43:39;;;;;;;132.55;58.53;;;;;;;-6.53;87.81;99965.16;4827066;29;20383;-81
2024/01/12 02:46:24;;;;;;;127.28;55.03;;;;;;;-6.48;88.18;99967.47;4826438;29;20042;-83
2024/01/12 02:49:10;;;;;;;153.88;62.80;;;;;;;-6.49;87.53;99964.97;4826371;29;20054;-83
2024/01/12 02:51:56;;;;;;;124.97;53.83;;;;;;;-6.44;88.18;99962.91;4831286;29;20054;-81
2024/01/12 02:54:41;;;;;;;257.70;112.55;;;;;;;-6.44;87.89;99958.56;4826146;29;20046;-83
2024/01/12 02:57:27;;;;;;;164.10;74.15;;;;;;;-6.46;88.02;99954.41;4826092;29;20054;-81
2024/01/12 03:00:13;;;;;;;132.88;59.67;;;;;;;-6.54;88.50;99955.78;4826015;29;20050;-81
2024/01/12 03:02:58;;;;;;;125.95;51.63;;;;;;;-6.46;88.76;99941.47;4825882;29;20422;-81
2024/01/12 03:05:44;;;;;;;125.97;54.80;;;;;;;-6.38;88.34;99941.81;4826253;29;20055;-83
2024/01/12 03:08:29;;;;;;;107.18;46.00;;;;;;;-6.40;88.20;99941.06;4825333;29;20401;-81
2024/01/12 03:11:15;;;;;;;106.15;46.58;;;;;;;-6.40;87.96;99934.13;4826286;29;20054;-83
2024/01/12 03:14:00;;;;;;;83.63;35.45;;;;;;;-6.38;87.51;99936.63;4826207;29;20046;-82
2024/01/12 03:16:46;;;;;;;111.78;48.20;;;;;;;-6.31;87.88;99937.88;4825912;29;20050;-84
2024/01/12 03:19:31;;;;;;;166.88;75.53;;;;;;;-6.37;87.68;99939.09;4826006;29;20405;-81
2024/01/12 03:22:17;;;;;;;124.45;55.50;;;;;;;-6.33;87.75;99939.72;4825969;29;20047;-82
2024/01/12 03:25:03;;;;;;;102.55;46.75;;;;;;;-6.38;87.83;99940.03;4825831;29;20058;-82
2024/01/12 03:27:49;;;;;;;134.20;61.00;;;;;;;-6.41;87.96;99929.91;4813270;29;20050;-82
2024/01/12 03:30:35;;;;;;;82.97;36.70;;;;;;;-6.39;87.94;99935.81;4825707;29;20046;-85
2024/01/12 03:33:21;;;;;;;92.95;42.50;;;;;;;-6.33;88.13;99916.44;4826348;29;20051;-82
2024/01/12 03:36:07;;;;;;;103.63;46.45;;;;;;;-6.28;87.54;99911.78;4825607;29;20053;-82
2024/01/12 03:38:54;;;;;;;86.65;41.63;;;;;;;-6.21;87.90;99914.78;4817832;29;20042;-84
2024/01/12 03:41:39;;;;;;;91.32;42.85;;;;;;;-6.22;87.29;99905.38;4825874;29;20391;-86
2024/01/12 03:44:25;;;;;;;105.85;42.95;;;;;;;-6.21;87.38;99915.59;4824572;29;20046;-83
2024/01/12 03:47:11;;;;;;;132.65;53.15;;;;;;;-6.19;87.54;99911.16;4817539;29;20046;-83
2024/01/12 03:49:56;;;;;;;115.15;47.13;;;;;;;-6.13;86.75;99905.56;4825423;29;20054;-83
2024/01/12 03:52:41;;;;;;;106.20;47.53;;;;;;;-6.16;86.60;99908.34;4825722;29;20054;-83
2024/01/12 03:55:27;;;;;;;107.68;45.00;;;;;;;-6.12;86.57;99904.63;4824343;29;20062;-86
2024/01/12 03:58:13;;;;;;;102.72;45.90;;;;;;;-6.11;86.30;99902.84;4811863;29;20486;-85
2024/01/12 04:00:58;;;;;;;100.07;44.63;;;;;;;-6.08;86.60;99906.06;4804798;29;20432;-83
2024/01/12 04:03:44;;;;;;;102.25;42.72;;;;;;;-5.99;85.87;99906.34;4825235;29;20054;-84
2024/01/12 04:06:29;;;;;;;108.72;43.50;;;;;;;-5.97;85.81;99912.25;4811597;29;20047;-83
2024/01/12 04:09:15;;;;;;;105.35;43.53;;;;;;;-5.91;86.12;99922.16;4824982;29;20042;-87
2024/01/12 04:12:01;;;;;;;121.95;45.97;;;;;;;-5.85;86.64;99932.91;4812064;29;20054;-86
2024/01/12 04:14:47;;;;;;;118.03;48.33;;;;;;;-5.81;86.26;99931.75;4818254;29;20051;-86
2024/01/12 04:17:33;;;;;;;130.13;53.13;;;;;;;-5.79;85.89;99934.25;4813050;29;20050;-85
2024/01/12 04:20:19;;;;;;;120.45;49.67;;;;;;;-5.81;86.21;99941.28;4825728;29;20051;-86
2024/01/12 04:23:04;;;;;;;140.20;58.88;;;;;;;-5.79;86.35;99944.59;4831721;29;20046;-83
2024/01/12 04:25:50;;;;;;;127.15;50.38;;;;;;;-5.84;86.40;99949.25;4825446;29;20050;-86
2024/01/12 04:28:35;;;;;;;135.85;53.67;;;;;;;-5.82;86.60;99953.41;4812236;29;20050;-86
2024/01/12 04:31:21;;;;;;;135.18;52.38;;;;;;;-5.85;86.52;99948.44;4843118;29;20050;-83
2024/01/12 04:34:07;;;;;;;121.20;50.40;;;;;;;-5.81;86.48;99959.41;4830982;29;20050;-87
2024/01/12 04:36:54;;;;;;;120.70;46.33;;;;;;;-5.79;86.89;99954.94;4811339;29;20050;-83
2024/01/12 04:39:41;;;;;;;125.70;47.55;;;;;;;-5.78;87.15;99954.00;4842105;29;20050;-83
2024/01/12 04:42:26;;;;;;;118.78;49.05;;;;;;;-5.76;87.78;99953.91;4842947;29;20038;-83
2024/01/12 04:45:12;;;;;;;115.97;48.90;;;;;;;-5.74;87.80;99958.03;4829425;29;20054;-86
2024/01/12 04:47:57;;;;;;;129.10;51.13;;;;;;;-5.74;87.45;99957.19;4829494;29;20053;-83
2024/01/12 04:50:43;;;;;;;117.53;49.50;;;;;;;-5.73;87.82;99949.34;4829224;29;20050;-87
2024/01/12 04:53:29;;;;;;;124.90;53.67;;;;;;;-5.71;87.48;99950.03;4829388;29;20046;-84
2024/01/12 04:56:16;;;;;;;134.68;55.65;;;;;;;-5.72;87.32;99950.16;4829954;29;20401;-83
2024/01/12 04:59:01;;;;;;;141.00;61.63;;;;;;;-5.71;87.68;99946.63;4829468;29;20050;-83
2024/01/12 05:01:46;;;;;;;139.60;61.85;;;;;;;-5.69;87.77;99949.94;4842619;29;20042;-83
2024/01/12 05:04:32;;;;;;;143.65;61.53;;;;;;;-5.60;87.32;99954.47;4822134;29;20401;-84
2024/01/12 05:07:17;;;;;;;134.80;56.35;;;;;;;-5.60;86.80;99951.88;4834888;29;20524;-87
2024/01/12 05:10:04;;;;;;;128.35;53.90;;;;;;;-5.56;87.08;99962.84;4829005;29;20050;-87
2024/01/12 05:12:50;;;;;;;125.80;54.22;;;;;;;-5.51;86.79;99963.38;4816336;29;20050;-84
2024/01/12 05:15:35;;;;;;;128.85;55.55;;;;;;;-5.50;86.42;99959.84;4835137;29;20045;-87
2024/01/12 05:18:21;;;;;;;134.98;55.00;;;;;;;-5.50;86.28;99957.25;4847917;29;20046;-87
2024/01/12 05:21:07;;;;;;;102.90;44.10;;;;;;;-5.55;86.62;99967.91;4828776;29;20054;-86
2024/01/12 05:23:52;;;;;;;117.32;49.95;;;;;;;-5.50;87.12;99963.25;4828860;29;20054;-84
2024/01/12 05:26:37;;;;;;;125.70;55.05;;;;;;;-5.44;86.44;99967.16;4841315;29;20050;-83
2024/01/12 05:29:22;;;;;;;126.70;51.38;;;;;;;-5.43;85.70;99969.63;4829063;29;20046;-87
2024/01/12 05:32:08;;;;;;;143.93;59.03;;;;;;;-5.38;85.97;99972.75;4825434;29;20489;-83
2024/01/12 05:34:53;;;;;;;107.82;40.38;;;;;;;-5.48;85.38;99968.34;4846067;29;20038;-86
2024/01/12 05:37:39;;;;;;;114.80;47.42;;;;;;;-5.51;85.53;99961.59;4832272;29;20050;-86
2024/01/12 05:40:24;;;;;;;113.28;46.85;;;;;;;-5.43;85.30;99968.81;4845133;29;20054;-86
2024/01/12 05:43:10;;;;;;;109.40;44.63;;;;;;;-5.45;85.29;99975.84;4832851;29;20050;-83
2024/01/12 05:45:56;;;;;;;116.63;47.88;;;;;;;-5.37;85.63;99976.16;4844967;29;20050;-83
2024/01/12 05:48:42;;;;;;;124.40;50.30;;;;;;;-5.36;86.26;99975.19;4846284;29;20489;-84
2024/01/12 05:51:28;;;;;;;111.88;46.25;;;;;;;-5.28;86.02;99979.84;4837550;29;20050;-85
2024/01/12 05:54:14;;;;;;;128.38;52.03;;;;;;;-5.26;85.88;99980.59;4845357;29;20050;-83
2024/01/12 05:57:00;;;;;;;131.13;53.95;;;;;;;-5.29;86.17;99989.41;4846247;29;20053;-85
2024/01/12 05:59:45;;;;;;;120.68;50.90;;;;;;;-5.24;86.65;99994.22;4846892;29;20050;-84
2024/01/12 06:02:31;;;;;;;119.05;45.80;;;;;;;-5.24;87.17;100002.84;4848491;29;20038;-84
2024/01/12 06:05:17;;;;;;;113.72;45.40;;;;;;;-5.18;86.58;100014.53;4856513;29;20058;-86
2024/01/12 06:08:02;;;;;;;114.57;48.55;;;;;;;-5.20;86.60;100014.66;4849630;29;20054;-83
2024/01/12 06:10:49;;;;;;;112.80;45.92;;;;;;;-5.15;87.43;100017.72;4860252;29;20049;-83
2024/01/12 06:13:34;;;;;;;114.20;45.13;;;;;;;-5.09;86.33;100013.88;4833229;29;20054;-83
2024/01/12 06:16:20;;;;;;;111.43;47.33;;;;;;;-5.04;86.10;100014.38;4845786;29;20054;-83
2024/01/12 06:19:05;;;;;;;143.70;53.90;;;;;;;-4.99;85.86;100024.41;4851253;29;20050;-84
2024/01/12 06:21:51;;;;;;;134.77;52.33;;;;;;;-4.94;85.81;100005.00;4849359;29;20485;-84
2024/01/12 06:24:37;;;;;;;135.07;52.03;;;;;;;-4.88;86.76;100006.31;4843034;29;20053;-83
2024/01/12 06:27:22;;;;;;;134.95;50.80;;;;;;;-4.85;85.29;100008.69;4856117;29;20038;-83
2024/01/12 06:30:09;;;;;;;70.32;29.08;;;;;;;-4.91;85.23;100009.13;4850922;29;20054;-83
2024/01/12 06:32:53;;;;;;;27.67;15.50;;;;;;;-4.92;85.81;100013.50;4850308;29;20497;-84
2024/01/12 06:35:39;;;;;;;37.60;17.20;;;;;;;-4.88;84.98;100016.69;4849761;29;20050;-84
2024/01/12 06:38:25;;;;;;;64.25;28.40;;;;;;;-4.81;83.94;100019.66;4850500;29;20484;-85
2024/01/12 06:41:10;;;;;;;46.22;22.13;;;;;;;-4.74;84.76;100021.69;4845026;29;20401;-83
2024/01/12 06:43:57;;;;;;;92.15;36.78;;;;;;;-4.72;84.23;100027.59;4830477;29;20045;-82
2024/01/12 06:46:43;;;;;;;82.15;35.03;;;;;;;-4.71;84.78;100025.81;4830967;29;20046;-86
2024/01/12 06:49:28;;;;;;;86.93;37.85;;;;;;;-4.63;84.72;100035.66;4844636;29;20049;-85
2024/01/12 06:52:14;;;;;;;95.38;38.50;;;;;;;-4.61;84.04;100021.59;4844567;29;20058;-84
2024/01/12 06:54:59;;;;;;;24.52;12.77;;;;;;;-4.55;83.81;100031.53;4844179;29;20046;-83
2024/01/12 06:57:46;;;;;;;93.82;39.50;;;;;;;-4.45;82.73;100031.69;4843289;29;20377;-87
2024/01/12 07:00:31;;;;;;;91.40;39.40;;;;;;;-4.44;81.91;100028.97;4844004;29;20042;-83
2024/01/12 07:03:17;;;;;;;108.22;43.25;;;;;;;-4.33;82.35;100025.56;4823819;29;20128;-85
2024/01/12 07:06:03;;;;;;;111.80;42.72;;;;;;;-4.18;82.38;100019.22;4830483;29;20053;-86
2024/01/12 07:08:48;;;;;;;76.57;33.33;;;;;;;-4.16;82.29;100018.31;4817151;29;20497;-85
2024/01/12 07:11:34;;;;;;;60.58;28.63;;;;;;;-4.16;82.02;100026.91;4823957;29;20079;-85
2024/01/12 07:14:19;;;;;;;58.80;24.58;;;;;;;-4.11;81.38;100040.38;4843840;29;20045;-84
2024/01/12 07:17:05;;;;;;;80.40;35.65;;;;;;;-4.07;81.26;100041.81;4843220;29;20057;-85
2024/01/12 07:19:50;;;;;;;47.90;20.55;;;;;;;-4.00;80.57;100043.00;4830328;29;20489;-82
2024/01/12 07:22:37;;;;;;;39.47;17.05;;;;;;;-3.96;79.45;100039.22;4844623;29;20405;-83
2024/01/12 07:25:21;;;;;;;21.92;11.70;;;;;;;-3.87;79.69;100042.06;4849366;29;20041;-85
2024/01/12 07:28:07;;;;;;;21.90;11.70;;;;;;;-3.72;80.16;100041.72;4843938;29;20046;-82
2024/01/12 07:30:54;;;;;;;32.15;15.70;;;;;;;-3.75;79.75;100049.72;4836907;29;20046;-82
2024/01/12 07:33:39;;;;;;;31.30;13.48;;;;;;;-3.35;78.34;100041.44;4844181;29;20046;-82
2024/01/12 07:36:25;;;;;;;31.90;12.82;;;;;;;-3.40;77.19;100040.16;4843688;29;20053;-85
2024/01/12 07:39:10;;;;;;;17.75;11.40;;;;;;;-3.43;77.03;100045.59;4843547;29;20058;-86
2024/01/12 07:41:56;;;;;;;27.17;14.60;;;;;;;-3.44;79.03;100047.38;4848086;29;20042;-83
2024/01/12 07:44:42;;;;;;;18.33;11.63;;;;;;;-3.40;77.59;100045.34;4829066;29;20050;-86
2024/01/12 07:47:27;;;;;;;50.17;18.10;;;;;;;-3.31;78.38;100053.25;4842717;29;20046;-85
2024/01/12 07:50:13;;;;;;;27.40;15.13;;;;;;;-3.23;78.07;100062.22;4843123;29;20061;-86
2024/01/12 07:52:59;;;;;;;21.15;11.95;;;;;;;-3.15;77.64;100065.03;4843600;29;20061;-83
2024/01/12 07:55:44;;;;;;;27.75;15.07;;;;;;;-3.07;77.47;100068.69;4835005;29;20054;-85
2024/01/12 07:58:29;;;;;;;50.30;25.13;;;;;;;-2.96;77.60;100065.25;4829301;29;20053;-86
2024/01/12 08:01:17;;;;;;;53.63;25.88;;;;;;;-2.84;76.94;100072.06;4843553;29;20058;-83
2024/01/12 08:04:02;;;;;;;14.75;9.77;;;;;;;-2.88;77.44;100075.03;4841902;29;20054;-85
2024/01/12 08:06:48;;;;;;;13.77;9.63;;;;;;;-2.82;76.26;100092.75;4850217;29;20172;-83
2024/01/12 08:09:34;;;;;;;18.25;8.93;;;;;;;-2.76;75.92;100091.44;4845080;29;20050;-83
2024/01/12 08:12:20;;;;;;;60.60;28.08;;;;;;;-2.67;76.46;100094.13;4831655;29;20050;-83
2024/01/12 08:15:08;;;;;;;45.65;20.85;;;;;;;-2.84;76.01;100099.84;4843944;29;20042;-86
2024/01/12 08:17:53;;;;;;;30.83;16.35;;;;;;;-2.88;75.38;100098.47;4843476;29;20038;-83
2024/01/12 08:20:38;;;;;;;35.58;17.55;;;;;;;-2.92;77.39;100108.25;4844802;29;20062;-78
2024/01/12 08:23:24;;;;;;;42.28;17.48;;;;;;;-2.94;76.89;100109.34;4846432;29;20049;-79
2024/01/12 08:26:09;;;;;;;17.70;11.32;;;;;;;-2.96;77.58;100098.22;4847282;29;20416;-77
2024/01/12 08:29:00;;;;;;;86.88;32.85;;;;;;;-2.92;77.12;100104.84;4843114;29;20046;-78
2024/01/12 08:31:46;;;;;;;61.33;27.40;;;;;;;-2.90;77.26;100105.53;4843916;29;20053;-78
2024/01/12 08:34:31;;;;;;;18.83;11.52;;;;;;;-2.91;76.20;100103.91;4850214;29;20050;-77
2024/01/12 08:37:17;;;;;;;37.97;16.77;;;;;;;-2.84;76.55;100102.47;4843448;29;20050;-78
2024/01/12 08:40:03;;;;;;;59.47;26.35;;;;;;;-2.75;76.61;100111.31;4842745;29;20050;-77
2024/01/12 08:42:48;;;;;;;38.85;19.20;;;;;;;-2.71;76.47;100117.91;4844885;29;20057;-78
2024/01/12 08:45:34;;;;;;;44.15;21.65;;;;;;;-2.69;77.99;100121.22;4845456;29;20489;-77
2024/01/12 08:48:19;;;;;;;66.78;31.20;;;;;;;-2.62;76.83;100119.78;4843735;29;20049;-77
2024/01/12 08:51:05;;;;;;;26.60;13.43;;;;;;;-2.61;76.80;100118.81;4845809;29;20050;-76
2024/01/12 08:53:51;;;;;;;57.17;25.42;;;;;;;-2.49;77.08;100117.03;4847752;29;20042;-77
2024/01/12 08:56:37;;;;;;;29.88;15.75;;;;;;;-2.49;76.58;100117.84;4846801;29;20058;-77
2024/01/12 08:59:22;;;;;;;36.38;15.40;;;;;;;-2.38;77.07;100125.63;4848101;29;20042;-77
2024/01/12 09:02:08;;;;;;;46.25;22.92;;;;;;;-2.31;75.96;100122.53;4847504;29;20050;-78
2024/01/12 09:04:54;;;;;;;66.60;29.08;;;;;;;-2.28;76.82;100127.47;4842656;29;20049;-78
2024/01/12 09:07:40;;;;;;;63.05;26.30;;;;;;;-2.17;75.38;100127.41;4846029;29;20042;-80
2024/01/12 09:10:26;;;;;;;64.15;27.90;;;;;;;-2.10;75.62;100123.34;4845832;29;20054;-78
2024/01/12 09:13:11;;;;;;;94.40;35.08;;;;;;;-2.11;75.13;100124.31;4846021;29;20058;-78
2024/01/12 09:15:57;;;;;;;67.32;27.55;;;;;;;-2.04;75.48;100129.81;4851443;29;20050;-78
2024/01/12 09:18:43;;;;;;;87.75;32.92;;;;;;;-1.92;74.52;100123.59;4845677;29;20053;-81
2024/01/12 09:21:28;;;;;;;23.05;13.88;;;;;;;-1.92;74.34;100127.03;4831616;29;20054;-77
2024/01/12 09:24:14;;;;;;;66.85;30.20;;;;;;;-1.81;75.12;100126.16;4845555;29;20058;-77
2024/01/12 09:26:59;;;;;;;30.52;14.85;;;;;;;-1.77;72.34;100132.75;4845288;29;20057;-79
2024/01/12 09:29:45;;;;;;;26.40;14.43;;;;;;;-1.66;73.22;100131.84;4851429;29;20054;-81
2024/01/12 09:32:30;;;;;;;55.08;25.70;;;;;;;-1.65;73.64;100129.13;4845432;29;20485;-80
2024/01/12 09:35:16;;;;;;;37.33;16.13;;;;;;;-1.56;72.89;100130.13;4844895;29;20053;-81
2024/01/12 09:38:02;;;;;;;59.78;23.95;;;;;;;-1.54;73.16;100130.81;4845691;29;20053;-77
2024/01/12 09:40:48;;;;;;;43.85;23.55;;;;;;;-1.56;72.95;100130.13;4850754;29;20041;-79
2024/01/12 09:43:36;;;;;;;83.57;35.13;;;;;;;-1.37;72.60;100125.97;4845192;29;20497;-79
2024/01/12 09:46:23;;;;;;;94.97;36.72;;;;;;;-1.40;73.18;100134.88;4831208;29;20057;-79
2024/01/12 09:49:09;;;;;;;56.45;24.50;;;;;;;-1.45;72.35;100137.88;4831542;29;20050;-82
2024/01/12 09:51:56;;;;;;;49.17;23.70;;;;;;;-1.59;73.00;100150.44;4849818;29;20414;-82
2024/01/12 09:54:44;;;;;;;100.10;37.10;;;;;;;-1.58;73.56;100146.84;4831350;29;20057;-82
2024/01/12 09:57:30;;;;;;;26.45;15.35;;;;;;;-1.65;73.54;100154.38;4845171;29;20042;-80
2024/01/12 10:00:18;;;;;;;23.70;13.63;;;;;;;-1.74;73.84;100158.56;4831283;29;20053;-82
2024/01/12 10:03:05;;;;;;;27.02;15.27;;;;;;;-1.77;73.83;100153.59;4830961;29;20049;-82
2024/01/12 10:05:50;;;;;;;25.83;14.88;;;;;;;-1.81;73.84;100154.81;4845421;29;20049;-82
2024/01/12 10:08:37;;;;;;;35.40;16.98;;;;;;;-1.83;73.86;100159.31;4844957;29;20046;-79
2024/01/12 10:11:23;;;;;;;29.77;15.38;;;;;;;-1.83;74.01;100164.53;4845160;29;20061;-78
2024/01/12 10:14:10;;;;;;;71.10;28.65;;;;;;;-1.78;74.11;100164.16;4851394;29;20046;-80
2024/01/12 10:16:56;;;;;;;55.35;27.90;;;;;;;-1.83;72.92;100166.31;4844844;29;20050;-78
2024/01/12 10:19:42;;;;;;;56.78;25.98;;;;;;;-1.83;73.29;100166.31;4844698;29;20050;-79
2024/01/12 10:22:27;;;;;;;34.08;18.33;;;;;;;-1.80;73.02;100161.69;4845119;29;20046;-83
2024/01/12 10:25:15;;;;;;;59.05;25.30;;;;;;;-1.64;72.91;100169.03;4844752;29;20046;-78
2024/01/12 10:28:00;;;;;;;59.75;26.92;;;;;;;-1.69;73.02;100172.06;4845236;29;20058;-79
2024/01/12 10:30:46;;;;;;;45.85;21.38;;;;;;;-1.64;73.31;100169.03;4844158;29;20474;-80
2024/01/12 10:33:33;;;;;;;55.35;22.58;;;;;;;-1.58;72.59;100172.94;4845403;29;20062;-79
2024/01/12 10:36:22;;;;;;;50.05;22.95;;;;;;;-1.63;71.79;100173.28;4831188;29;20409;-78
2024/01/12 10:39:09;;;;;;;18.40;10.80;;;;;;;-1.59;73.58;100171.28;4830875;29;20062;-81
2024/01/12 10:41:57;;;;;;;32.70;15.30;;;;;;;-1.64;73.14;100171.66;4846105;29;20030;-77
2024/01/12 10:44:44;;;;;;;29.90;17.05;;;;;;;-1.63;72.76;100174.16;4844059;29;20497;-80
2024/01/12 10:47:32;;;;;;;21.05;14.55;;;;;;;-1.60;73.34;100164.41;4843356;29;20054;-80
2024/01/12 10:50:19;;;;;;;60.85;26.05;;;;;;;-1.59;73.81;100169.50;4830182;29;20520;-80
2024/01/12 10:53:20;;;;;;;41.65;20.88;;;;;;;-1.56;73.88;100168.41;4844298;29;20046;-83
2024/01/12 10:56:07;;;;;;;49.30;20.80;;;;;;;-1.55;73.80;100159.63;4831992;29;20054;-81
2024/01/12 10:58:53;;;;;;;35.97;17.40;;;;;;;-1.55;72.91;100160.47;4845275;29;20054;-78
2024/01/12 11:01:40;;;;;;;35.53;18.00;;;;;;;-1.58;72.66;100158.09;4844350;29;20050;-80
2024/01/12 11:04:27;;;;;;;31.30;13.52;;;;;;;-1.53;72.45;100158.56;4830689;29;20049;-81
2024/01/12 11:07:14;;;;;;;32.80;15.25;;;;;;;-1.55;73.58;100160.47;4830324;29;20046;-81
2024/01/12 11:10:00;;;;;;;26.60;13.05;;;;;;;-1.58;72.79;100150.28;4844047;29;20046;-81
2024/01/12 11:12:46;;;;;;;36.40;18.20;;;;;;;-1.51;73.59;100161.03;4843621;29;20050;-83
2024/01/12 11:15:32;;;;;;;39.65;15.40;;;;;;;-1.49;72.91;100162.56;4843895;29;20046;-84
2024/01/12 11:18:19;;;;;;;25.60;14.65;;;;;;;-1.43;73.07;100159.44;4843840;29;20050;-80
2024/01/12 11:21:04;;;;;;;22.70;11.80;;;;;;;-1.44;72.97;100155.19;4843999;29;20405;-84
2024/01/12 11:23:50;;;;;;;47.42;21.90;;;;;;;-1.37;73.44;100157.28;4843583;29;20050;-84
2024/01/12 11:26:37;;;;;;;34.22;17.05;;;;;;;-1.35;72.21;100153.56;4844012;29;20041;-83
2024/01/12 11:29:31;;;;;;;37.78;10.15;;;;;;;-1.37;73.21;100159.88;4829318;29;20046;-80
2024/01/12 11:32:16;;;;;;;41.15;16.83;;;;;;;-1.33;71.88;100148.22;4848780;29;20046;-84
2024/01/12 11:35:20;;;;;;;80.75;33.75;;;;;;;-1.19;72.73;100153.91;4843517;29;20062;-84
2024/01/12 11:38:09;;;;;;;86.68;35.40;;;;;;;-0.93;72.38;100156.06;4843514;29;20369;-84
2024/01/12 11:40:55;;;;;;;62.28;26.58;;;;;;;-0.91;72.93;100156.72;4843597;29;20050;-80
2024/01/12 11:43:49;;;;;;;61.45;25.52;;;;;;;-0.89;72.20;100143.56;4843523;29;20050;-81
2024/01/12 11:46:34;;;;;;;48.30;22.30;;;;;;;-0.83;71.41;100140.44;4843278;29;20057;-83
2024/01/12 11:49:20;;;;;;;37.58;16.77;;;;;;;-0.75;71.48;100135.38;4843465;29;20042;-81
2024/01/12 11:52:07;;;;;;;31.95;13.98;;;;;;;-0.74;71.35;100137.00;4843096;29;20054;-83
2024/01/12 11:54:52;;;;;;;41.72;19.00;;;;;;;-0.77;71.89;100134.66;4829344;29;20050;-80
2024/01/12 11:57:38;;;;;;;16.27;10.25;;;;;;;-0.80;70.66;100142.78;4842880;29;20042;-83
2024/01/12 12:00:23;;;;;;;44.38;20.83;;;;;;;-0.66;70.98;100131.94;4837699;29;20053;-84
2024/01/12 12:03:10;;;;;;;18.73;11.63;;;;;;;-0.77;69.42;100134.66;4852465;29;20046;-79
2024/01/12 12:05:55;;;;;;;21.15;9.77;;;;;;;-0.75;70.52;100125.75;4845494;29;20049;-83
2024/01/12 12:08:42;;;;;;;49.25;22.85;;;;;;;-0.68;71.17;100133.88;4844146;29;20064;-83
2024/01/12 12:11:29;;;;;;;46.05;21.38;;;;;;;-0.39;70.68;100127.84;4845553;29;20058;-83
2024/01/12 12:14:14;;;;;;;74.10;32.25;;;;;;;-0.25;69.97;100132.69;4846435;29;20058;-83
2024/01/12 12:17:00;;;;;;;16.45;8.80;;;;;;;-0.48;69.98;100129.47;4849551;29;20438;-80
2024/01/12 12:19:45;;;;;;;27.60;14.52;;;;;;;-0.55;70.07;100121.38;4832545;29;20496;-84
2024/01/12 12:22:31;;;;;;;47.00;21.73;;;;;;;-0.32;70.37;100126.31;4842740;29;20050;-80
2024/01/12 12:25:17;;;;;;;39.03;18.33;;;;;;;-0.32;69.64;100116.69;4842357;29;20054;-81
2024/01/12 12:28:03;;;;;;;25.30;12.75;;;;;;;-0.44;68.27;100117.78;4842097;29;20513;-83
2024/01/12 12:30:51;;;;;;;36.60;18.60;;;;;;;-0.28;69.21;100112.06;4842519;29;20054;-80
2024/01/12 12:33:37;;;;;;;35.78;17.27;;;;;;;-0.36;68.56;100110.09;4842608;29;20050;-82
2024/01/12 12:36:22;;;;;;;25.77;9.57;;;;;;;-0.39;68.52;100110.38;4842359;29;20425;-85
2024/01/12 12:39:09;;;;;;;45.83;19.95;;;;;;;-0.31;69.00;100109.72;4828822;29;20061;-84
2024/01/12 12:41:55;;;;;;;40.15;16.80;;;;;;;-0.45;68.96;100108.31;4832549;29;20054;-80
2024/01/12 12:44:40;;;;;;;22.27;12.63;;;;;;;-0.55;69.40;100108.31;4846407;29;20042;-80
2024/01/12 12:47:27;;;;;;;41.08;20.30;;;;;;;-0.63;70.87;100123.00;4846123;29;20054;-79
2024/01/12 12:50:12;;;;;;;50.30;25.38;;;;;;;-0.57;70.67;100119.84;4832681;29;20405;-82
2024/01/12 12:52:57;;;;;;;25.52;14.18;;;;;;;-0.76;70.99;100118.88;4846848;29;20050;-84
2024/01/12 12:55:46;;;;;;;23.42;11.25;;;;;;;-0.79;71.54;100113.91;4846114;29;20109;-84
2024/01/12 12:58:32;;;;;;;42.08;18.85;;;;;;;-0.74;72.34;100122.19;4846070;29;20401;-85
2024/01/12 13:01:18;;;;;;;26.48;13.82;;;;;;;-0.83;71.68;100116.94;4832762;29;20080;-79
2024/01/12 13:04:05;;;;;;;20.23;11.43;;;;;;;-0.90;71.30;100114.03;4831178;29;20054;-80
2024/01/12 13:06:50;;;;;;;27.73;14.98;;;;;;;-0.98;71.05;100114.69;4846097;29;20148;-80